createdAt,value
2022-10-23T00:02:05.944Z,131.13
2022-10-23T00:04:40.355Z,132.37
2022-10-23T00:07:13.559Z,144.43
2022-10-23T00:09:47.157Z,141.27
2022-10-23T00:12:21.459Z,139.20
2022-10-23T00:14:57.686Z,131.73
2022-10-23T00:17:34.044Z,141.80
2022-10-23T00:20:08.112Z,136.13
2022-10-23T00:22:42.689Z,127.43
2022-10-23T00:25:20.251Z,135.17
2022-10-23T00:27:53.987Z,147.90
2022-10-23T00:30:29.833Z,147.13
2022-10-23T00:33:03.654Z,134.00
2022-10-23T00:35:37.264Z,142.50
2022-10-23T00:38:11.717Z,143.93
2022-10-23T00:40:46.510Z,137.27
2022-10-23T00:43:24.240Z,137.63
2022-10-23T00:46:03.898Z,132.50
2022-10-23T00:48:38.075Z,143.53
2022-10-23T00:51:12.409Z,143.73
2022-10-23T00:53:52.836Z,160.03
2022-10-23T00:56:31.694Z,148.67
2022-10-23T00:59:06.282Z,143.63
2022-10-23T01:01:43.305Z,135.30
2022-10-23T01:04:18.473Z,142.53
2022-10-23T01:07:02.073Z,142.03
2022-10-23T01:09:43.571Z,141.43
2022-10-23T01:12:27.689Z,133.20
2022-10-23T01:15:11.404Z,155.43
2022-10-23T01:17:52.517Z,147.23
2022-10-23T01:20:47.145Z,156.30
2022-10-23T01:23:59.696Z,154.93
2022-10-23T01:26:47.890Z,146.37
2022-10-23T01:29:29.603Z,141.20
2022-10-23T01:32:07.326Z,149.00
2022-10-23T01:34:48.872Z,149.90
2022-10-23T01:37:31.850Z,149.47
2022-10-23T01:40:14.051Z,149.93
2022-10-23T01:42:54.953Z,148.17
2022-10-23T01:45:41.084Z,147.90
2022-10-23T01:48:22.586Z,158.00
2022-10-23T01:50:59.351Z,156.80
2022-10-23T01:53:38.850Z,148.00
2022-10-23T01:56:16.283Z,154.80
2022-10-23T01:58:55.503Z,158.43
2022-10-23T02:01:36.792Z,147.20
2022-10-23T02:04:15.880Z,157.53
2022-10-23T02:06:52.742Z,146.90
2022-10-23T02:09:29.559Z,156.30
2022-10-23T02:12:11.614Z,150.80
2022-10-23T02:14:56.872Z,156.13
2022-10-23T02:17:46.057Z,162.17
2022-10-23T02:20:26.685Z,153.50
2022-10-23T02:23:07.000Z,150.37
2022-10-23T02:25:47.614Z,157.90
2022-10-23T02:28:25.778Z,162.10
2022-10-23T02:31:06.874Z,162.67
2022-10-23T02:33:44.023Z,156.18
2022-10-23T02:36:18.440Z,157.30
2022-10-23T02:38:53.406Z,155.25
2022-10-23T02:41:40.254Z,148.57
2022-10-23T02:44:39.118Z,158.73
2022-10-23T02:47:30.810Z,160.80
2022-10-23T02:50:14.756Z,160.50
2022-10-23T02:53:04.130Z,156.63
2022-10-23T02:55:51.355Z,140.68
2022-10-23T02:58:33.588Z,158.52
2022-10-23T03:01:14.023Z,148.23
2022-10-23T03:03:54.165Z,153.25
2022-10-23T03:06:31.115Z,140.57
2022-10-23T03:09:09.712Z,150.27
2022-10-23T03:11:48.105Z,151.55
2022-10-23T03:14:26.401Z,149.25
2022-10-23T03:17:06.123Z,148.95
2022-10-23T03:19:41.246Z,140.07
2022-10-23T03:22:18.327Z,153.60
2022-10-23T03:24:58.318Z,149.43
2022-10-23T03:27:32.964Z,143.00
2022-10-23T03:30:12.523Z,140.20
2022-10-23T03:32:48.453Z,141.02
2022-10-23T03:35:23.026Z,134.07
2022-10-23T03:38:00.933Z,128.00
2022-10-23T03:40:38.645Z,135.10
2022-10-23T03:43:13.390Z,139.93
2022-10-23T03:45:53.716Z,134.30
2022-10-23T03:48:29.557Z,143.52
2022-10-23T03:51:10.824Z,149.20
2022-10-23T03:53:50.322Z,136.57
2022-10-23T03:56:33.376Z,142.85
2022-10-23T03:59:11.739Z,133.82
2022-10-23T04:01:48.841Z,136.82
2022-10-23T04:04:29.481Z,138.70
2022-10-23T04:07:08.035Z,131.77
2022-10-23T04:09:45.613Z,113.07
2022-10-23T04:12:24.661Z,111.85
2022-10-23T04:15:01.420Z,112.93
2022-10-23T04:17:36.154Z,111.78
2022-10-23T04:20:15.693Z,126.55
2022-10-23T04:22:50.553Z,126.60
2022-10-23T04:25:31.425Z,135.45
2022-10-23T04:28:06.354Z,131.93
2022-10-23T04:30:45.870Z,133.52
2022-10-23T04:33:24.224Z,119.50
2022-10-23T04:36:00.839Z,116.72
2022-10-23T04:38:35.809Z,118.43
2022-10-23T04:41:15.266Z,108.80
2022-10-23T04:43:49.965Z,111.70
2022-10-23T04:46:25.187Z,113.25
2022-10-23T04:48:59.829Z,112.00
2022-10-23T04:51:52.683Z,116.85
2022-10-23T04:54:50.388Z,101.82
2022-10-23T04:57:35.654Z,102.68
2022-10-23T05:00:21.918Z,100.72
2022-10-23T05:03:01.365Z,99.93
2022-10-23T05:05:42.730Z,100.78
2022-10-23T05:08:37.094Z,105.20
2022-10-23T05:11:26.706Z,108.95
2022-10-23T05:14:03.910Z,106.47
2022-10-23T05:16:44.575Z,103.00
2022-10-23T05:19:27.942Z,102.75
2022-10-23T05:22:06.579Z,110.07
2022-10-23T05:28:46.362Z,103.80
2022-10-23T05:31:34.580Z,96.30
2022-10-23T05:34:16.386Z,80.60
2022-10-23T05:36:52.297Z,91.80
2022-10-23T05:39:29.888Z,89.57
2022-10-23T05:42:07.518Z,79.45
2022-10-23T05:44:42.620Z,84.70
2022-10-23T05:47:50.517Z,83.13
2022-10-23T05:50:52.014Z,79.95
2022-10-23T05:53:41.721Z,90.80
2022-10-23T05:56:34.412Z,91.90
2022-10-23T05:59:29.732Z,89.15
2022-10-23T06:02:19.961Z,85.63
2022-10-23T06:05:13.899Z,103.25
2022-10-23T06:08:14.470Z,94.43
2022-10-23T06:10:51.293Z,91.75
2022-10-23T06:13:26.574Z,103.97
2022-10-23T06:16:00.964Z,101.72
2022-10-23T06:18:39.214Z,97.38
2022-10-23T06:21:24.277Z,101.53
2022-10-23T06:24:00.775Z,95.37
2022-10-23T06:27:06.641Z,100.38
2022-10-23T06:29:49.542Z,93.03
2022-10-23T06:32:24.949Z,93.60
2022-10-23T06:35:17.351Z,92.10
2022-10-23T06:37:54.022Z,91.73
2022-10-23T06:40:48.353Z,96.18
2022-10-23T06:43:29.682Z,99.43
2022-10-23T06:46:22.536Z,90.38
2022-10-23T06:49:20.588Z,95.93
2022-10-23T06:51:57.771Z,95.82
2022-10-23T06:54:38.289Z,102.87
2022-10-23T06:57:15.065Z,100.80
2022-10-23T06:59:53.366Z,90.87
2022-10-23T07:02:32.110Z,97.00
2022-10-23T07:05:08.837Z,94.00
2022-10-23T07:07:47.347Z,101.83
2022-10-23T07:10:33.971Z,93.67
2022-10-23T07:13:08.333Z,99.35
2022-10-23T07:15:46.445Z,102.30
2022-10-23T07:18:25.798Z,100.70
2022-10-23T07:21:25.184Z,105.07
2022-10-23T07:24:02.661Z,97.77
2022-10-23T07:26:47.202Z,94.97
2022-10-23T07:29:23.320Z,103.40
2022-10-23T07:31:58.787Z,98.60
2022-10-23T07:34:34.224Z,94.20
2022-10-23T07:37:28.379Z,89.13
2022-10-23T07:40:03.405Z,97.27
2022-10-23T07:42:47.067Z,103.23
2022-10-23T07:45:23.776Z,96.17
2022-10-23T07:48:00.751Z,101.53
2022-10-23T07:50:46.744Z,93.37
2022-10-23T07:53:30.304Z,92.20
2022-10-23T07:56:25.596Z,97.37
2022-10-23T07:59:20.550Z,91.50
2022-10-23T08:02:01.098Z,94.73
2022-10-23T08:04:41.403Z,86.80
2022-10-23T08:07:28.441Z,91.57
2022-10-23T08:10:05.363Z,86.20
2022-10-23T08:12:45.533Z,81.17
2022-10-23T08:15:22.918Z,88.43
2022-10-23T08:18:02.319Z,78.33
2022-10-23T08:20:53.733Z,79.23
2022-10-23T08:23:28.486Z,82.53
2022-10-23T08:26:06.835Z,85.83
2022-10-23T08:28:47.130Z,68.43
2022-10-23T08:31:26.691Z,67.23
2022-10-23T08:34:20.071Z,59.60
2022-10-23T08:36:56.534Z,60.13
2022-10-23T08:39:31.665Z,61.00
2022-10-23T08:42:34.193Z,62.60
2022-10-23T08:45:21.342Z,57.73
2022-10-23T08:48:07.485Z,61.83
2022-10-23T08:51:26.279Z,57.77
2022-10-23T08:54:12.663Z,56.50
2022-10-23T08:56:52.494Z,59.33
2022-10-23T08:59:34.112Z,63.43
2022-10-23T09:02:17.333Z,54.70
2022-10-23T09:04:54.680Z,51.37
2022-10-23T09:07:40.979Z,58.43
2022-10-23T09:10:38.616Z,55.63
2022-10-23T09:13:42.016Z,62.33
2022-10-23T09:16:26.816Z,53.70
2022-10-23T09:19:07.671Z,61.47
2022-10-23T09:21:46.481Z,55.73
2022-10-23T09:24:22.322Z,55.50
2022-10-23T09:26:59.365Z,56.87
2022-10-23T09:29:36.915Z,59.97
2022-10-23T09:32:14.139Z,53.50
2022-10-23T09:34:58.482Z,59.77
2022-10-23T09:37:43.180Z,56.33
2022-10-23T09:40:26.510Z,62.23
2022-10-23T09:43:03.211Z,60.60
2022-10-23T09:45:40.704Z,60.10
2022-10-23T09:48:20.314Z,60.03
2022-10-23T09:51:01.404Z,59.53
2022-10-23T09:53:44.881Z,59.70
2022-10-23T09:56:31.434Z,54.77
2022-10-23T09:59:09.899Z,62.33
2022-10-23T10:01:55.457Z,57.70
2022-10-23T10:04:52.412Z,58.67
2022-10-23T10:07:31.192Z,63.60
2022-10-23T10:10:17.695Z,58.63
2022-10-23T10:13:00.215Z,65.70
2022-10-23T10:15:38.541Z,62.57
2022-10-23T10:18:19.380Z,65.10
2022-10-23T10:21:07.254Z,58.17
2022-10-23T10:23:51.697Z,61.83
2022-10-23T10:26:39.388Z,58.70
2022-10-23T10:29:31.603Z,68.93
2022-10-23T10:32:15.190Z,63.13
2022-10-23T10:34:55.837Z,63.53
2022-10-23T10:37:48.722Z,66.13
2022-10-23T10:40:31.870Z,67.00
2022-10-23T10:43:22.304Z,69.70
2022-10-23T10:46:10.253Z,66.47
2022-10-23T10:48:53.704Z,69.93
2022-10-23T10:51:53.832Z,72.90
2022-10-23T10:54:45.018Z,78.40
2022-10-23T10:57:33.522Z,70.03
2022-10-23T11:00:47.254Z,73.17
2022-10-23T11:03:43.633Z,80.83
2022-10-23T11:06:22.980Z,69.43
2022-10-23T11:09:19.231Z,75.43
2022-10-23T11:12:06.093Z,82.10
2022-10-23T11:14:42.893Z,79.43
2022-10-23T11:17:25.739Z,89.37
2022-10-23T11:20:08.110Z,77.73
2022-10-23T11:22:51.108Z,90.57
2022-10-23T11:25:51.075Z,91.17
2022-10-23T11:28:41.549Z,88.80
2022-10-23T11:31:27.462Z,93.17
2022-10-23T11:34:49.840Z,97.77
2022-10-23T11:37:32.292Z,97.43
2022-10-23T11:40:31.951Z,104.67
2022-10-23T11:43:14.924Z,106.47
2022-10-23T11:45:49.294Z,99.47
2022-10-23T11:48:41.191Z,100.50
2022-10-23T11:51:34.308Z,121.63
2022-10-23T11:54:29.002Z,135.60
2022-10-23T11:57:16.441Z,121.33
2022-10-23T12:00:00.765Z,126.63
2022-10-23T12:02:39.774Z,134.10
2022-10-23T12:05:30.842Z,120.33
2022-10-23T12:08:09.923Z,134.10
2022-10-23T12:10:53.419Z,109.10
2022-10-23T12:13:48.997Z,105.87
2022-10-23T12:16:23.916Z,125.23
2022-10-23T12:18:59.634Z,120.00
2022-10-23T12:21:43.278Z,135.67
2022-10-23T12:24:57.079Z,143.63
2022-10-23T12:27:43.173Z,145.90
2022-10-23T12:30:27.308Z,138.23
2022-10-23T12:33:17.781Z,132.77
2022-10-23T12:36:13.535Z,135.40
2022-10-23T12:38:52.812Z,130.80
2022-10-23T12:41:33.883Z,132.97
2022-10-23T12:44:14.478Z,122.40
2022-10-23T12:46:55.702Z,124.53
2022-10-23T12:49:35.213Z,131.63
2022-10-23T12:52:23.574Z,140.60
2022-10-23T12:55:05.171Z,141.80
2022-10-23T12:57:49.691Z,134.47
2022-10-23T13:00:30.853Z,138.47
2022-10-23T13:03:08.152Z,142.77
2022-10-23T13:05:43.788Z,142.13
2022-10-23T13:08:24.372Z,145.03
2022-10-23T13:11:25.152Z,146.60
2022-10-23T13:14:03.128Z,153.03
2022-10-23T13:16:38.254Z,151.37
2022-10-23T13:19:29.413Z,151.73
2022-10-23T13:22:05.246Z,148.00
2022-10-23T13:24:45.728Z,153.40
2022-10-23T13:27:36.251Z,154.37
2022-10-23T13:30:35.936Z,156.03
2022-10-23T13:33:29.478Z,158.37
2022-10-23T13:36:08.425Z,155.67
2022-10-23T13:38:45.605Z,161.47
2022-10-23T13:41:23.817Z,160.90
2022-10-23T13:43:58.948Z,158.40
2022-10-23T13:46:39.452Z,157.53
2022-10-23T13:49:14.247Z,159.43
2022-10-23T13:51:54.925Z,164.30
2022-10-23T13:54:31.049Z,161.27
2022-10-23T13:57:08.740Z,164.30
2022-10-23T13:59:44.695Z,150.33
2022-10-23T14:02:27.860Z,159.07
2022-10-23T14:05:03.404Z,160.23
2022-10-23T14:07:41.054Z,163.90
2022-10-23T14:10:15.567Z,175.67
2022-10-23T14:12:57.119Z,165.27
2022-10-23T14:15:32.011Z,164.37
2022-10-23T14:18:14.281Z,169.10
2022-10-23T14:20:49.460Z,180.97
2022-10-23T14:23:25.446Z,170.03
2022-10-23T14:26:05.352Z,168.10
2022-10-23T14:28:39.974Z,159.67
2022-10-23T14:31:18.081Z,165.87
2022-10-23T14:33:58.223Z,165.40
2022-10-23T14:36:43.113Z,136.20
2022-10-23T14:39:24.750Z,131.83
2022-10-23T14:41:59.331Z,144.63
2022-10-23T14:44:33.244Z,136.00
2022-10-23T14:47:16.055Z,126.77
2022-10-23T14:49:58.456Z,135.07
2022-10-23T14:52:33.062Z,134.00
2022-10-23T14:55:07.209Z,132.60
2022-10-23T14:57:41.827Z,120.83
2022-10-23T15:00:17.707Z,138.73
2022-10-23T15:02:54.623Z,126.10
2022-10-23T15:05:31.285Z,124.67
2022-10-23T15:08:06.129Z,132.33
2022-10-23T15:10:43.131Z,122.33
2022-10-23T15:13:18.999Z,123.40
2022-10-23T15:15:53.162Z,129.20
2022-10-23T15:18:28.698Z,127.30
2022-10-23T15:21:06.913Z,131.53
2022-10-23T15:23:45.050Z,126.70
2022-10-23T15:26:22.644Z,137.10
2022-10-23T15:29:00.658Z,139.47
2022-10-23T15:31:56.870Z,135.47
2022-10-23T15:34:33.831Z,129.30
2022-10-23T15:37:10.558Z,133.87
2022-10-23T15:39:47.202Z,130.47
2022-10-23T15:42:22.235Z,127.87
2022-10-23T15:45:01.509Z,136.93
2022-10-23T15:47:36.040Z,137.07
2022-10-23T15:50:13.033Z,146.30
2022-10-23T15:52:54.505Z,148.03
2022-10-23T15:55:28.254Z,157.20
2022-10-23T15:58:05.475Z,141.80
2022-10-23T16:00:44.964Z,143.73
2022-10-23T16:03:18.688Z,141.43
2022-10-23T16:05:53.217Z,145.67
2022-10-23T16:08:31.872Z,145.70
2022-10-23T16:11:09.224Z,143.23
2022-10-23T16:13:47.159Z,144.50
2022-10-23T16:16:36.396Z,145.57
2022-10-23T16:19:15.561Z,154.07
2022-10-23T16:21:50.451Z,154.53
2022-10-23T16:24:27.266Z,163.37
2022-10-23T16:27:02.700Z,163.57
2022-10-23T16:29:37.437Z,156.47
2022-10-23T16:32:18.292Z,160.00
2022-10-23T16:34:56.033Z,163.50
2022-10-23T16:37:31.454Z,161.80
2022-10-23T16:40:16.653Z,153.33
2022-10-23T16:43:08.681Z,163.93
2022-10-23T16:45:51.551Z,161.53
2022-10-23T16:48:27.908Z,162.00
2022-10-23T16:51:01.753Z,158.90
2022-10-23T16:53:40.352Z,165.47
2022-10-23T16:56:22.982Z,155.63
2022-10-23T17:01:39.391Z,161.93
2022-10-23T17:04:16.936Z,173.57
2022-10-23T17:06:50.829Z,162.60
2022-10-23T17:09:25.446Z,172.67
2022-10-23T17:12:02.382Z,171.63
2022-10-23T17:14:37.456Z,185.53
2022-10-23T17:17:13.201Z,176.53
2022-10-23T17:19:47.595Z,185.40
2022-10-23T17:22:25.108Z,180.77
2022-10-23T17:24:59.636Z,180.93
2022-10-23T17:27:36.502Z,170.50
2022-10-23T17:30:12.821Z,168.03
2022-10-23T17:32:50.746Z,171.47
2022-10-23T17:35:25.313Z,169.30
2022-10-23T17:38:02.567Z,171.03
2022-10-23T17:40:36.034Z,176.77
2022-10-23T17:43:12.448Z,171.63
2022-10-23T17:45:48.131Z,179.20
2022-10-23T17:48:22.306Z,180.97
2022-10-23T17:51:04.536Z,172.47
2022-10-23T17:53:39.627Z,179.37
2022-10-23T17:56:20.082Z,175.00
2022-10-23T17:58:58.603Z,172.10
2022-10-23T18:01:34.087Z,157.27
2022-10-23T18:04:09.779Z,161.10
2022-10-23T18:06:48.161Z,161.53
2022-10-23T18:09:22.020Z,159.07
2022-10-23T18:11:56.369Z,159.60
2022-10-23T18:14:35.412Z,157.83
2022-10-23T18:17:11.215Z,164.37
2022-10-23T18:19:44.851Z,158.60
2022-10-23T18:24:57.223Z,159.70
2022-10-23T18:27:31.318Z,158.57
2022-10-23T18:30:07.972Z,163.90
2022-10-23T18:32:41.926Z,156.23
2022-10-23T18:35:15.971Z,146.33
2022-10-23T18:37:50.341Z,154.67
2022-10-23T18:40:27.908Z,150.40
2022-10-23T18:43:02.236Z,150.50
2022-10-23T18:45:39.613Z,149.73
2022-10-23T18:48:13.492Z,144.13
2022-10-23T18:50:47.202Z,143.20
2022-10-23T18:53:21.289Z,151.43
2022-10-23T18:55:55.316Z,150.43
2022-10-23T18:58:30.707Z,142.20
2022-10-23T19:01:06.452Z,143.53
2022-10-23T19:03:40.316Z,147.93
2022-10-23T19:06:14.801Z,148.23
2022-10-23T19:08:49.940Z,145.83
2022-10-23T19:11:25.686Z,145.97
2022-10-23T19:14:00.563Z,141.80
2022-10-23T19:16:44.480Z,149.53
2022-10-23T19:19:23.596Z,150.37
2022-10-23T19:21:58.356Z,148.60
2022-10-23T19:24:36.545Z,149.57
2022-10-23T19:27:10.326Z,153.63
2022-10-23T19:29:47.056Z,145.90
2022-10-23T19:32:23.910Z,149.73
2022-10-23T19:34:57.862Z,154.53
2022-10-23T19:37:31.775Z,137.23
2022-10-23T19:40:07.878Z,145.93
2022-10-23T19:42:43.393Z,146.70
2022-10-23T19:45:19.369Z,139.17
2022-10-23T19:47:55.252Z,140.07
2022-10-23T19:50:29.427Z,145.23
2022-10-23T19:53:03.613Z,143.63
2022-10-23T19:55:37.944Z,138.60
2022-10-23T19:58:12.155Z,140.27
2022-10-23T20:00:46.473Z,135.73
2022-10-23T20:03:21.715Z,128.83
2022-10-23T20:05:55.645Z,127.70
2022-10-23T20:08:32.694Z,122.23
2022-10-23T20:11:09.609Z,122.20
2022-10-23T20:13:42.998Z,119.93
2022-10-23T20:16:22.247Z,124.77
2022-10-23T20:18:57.456Z,125.83
2022-10-23T20:21:31.016Z,122.90
2022-10-23T20:24:05.236Z,123.53
2022-10-23T20:26:39.267Z,124.40
2022-10-23T20:29:12.617Z,123.97
2022-10-23T20:31:46.587Z,108.93
2022-10-23T20:34:23.483Z,115.70
2022-10-23T20:36:57.624Z,120.80
2022-10-23T20:39:34.564Z,105.73
2022-10-23T20:42:10.032Z,111.77
2022-10-23T20:44:43.857Z,114.17
2022-10-23T20:47:18.131Z,111.23
2022-10-23T20:49:54.180Z,107.20
2022-10-23T20:52:30.611Z,106.67
2022-10-23T20:55:07.869Z,103.13
2022-10-23T20:57:41.950Z,105.00
2022-10-23T21:00:17.236Z,99.47
2022-10-23T21:02:52.615Z,98.07
2022-10-23T21:05:29.083Z,100.17
2022-10-23T21:08:03.284Z,100.17
2022-10-23T21:10:36.713Z,105.40
2022-10-23T21:13:10.005Z,104.63
2022-10-23T21:15:43.385Z,98.23
2022-10-23T21:18:26.528Z,95.53
2022-10-23T21:21:14.950Z,98.03
2022-10-23T21:23:48.774Z,96.30
2022-10-23T21:26:23.839Z,94.20
2022-10-23T21:29:17.388Z,95.37
2022-10-23T21:31:57.756Z,92.07
2022-10-23T21:34:32.252Z,95.10
2022-10-23T21:37:13.323Z,100.90
2022-10-23T21:39:48.156Z,99.87
2022-10-23T21:42:22.104Z,93.67
2022-10-23T21:44:56.489Z,96.40
2022-10-23T21:47:30.229Z,102.53
2022-10-23T21:50:03.533Z,103.13
2022-10-23T21:52:39.751Z,92.83
2022-10-23T21:55:14.473Z,97.27
2022-10-23T21:57:48.483Z,90.37
2022-10-23T22:00:23.171Z,98.60
2022-10-23T22:02:57.535Z,95.33
2022-10-23T22:05:31.229Z,92.47
2022-10-23T22:08:07.214Z,88.93
2022-10-23T22:10:40.713Z,86.50
2022-10-23T22:13:14.998Z,94.13
2022-10-23T22:15:48.667Z,88.27
2022-10-23T22:18:22.342Z,95.77
2022-10-23T22:20:58.207Z,95.17
2022-10-23T22:23:36.778Z,89.90
2022-10-23T22:26:23.261Z,91.77
2022-10-23T22:28:58.730Z,86.60
2022-10-23T22:31:34.216Z,93.20
2022-10-23T22:34:25.023Z,86.40
2022-10-23T22:37:04.251Z,93.70
2022-10-23T22:39:39.487Z,76.77
2022-10-23T22:42:13.395Z,82.20
2022-10-23T22:44:47.838Z,88.03
2022-10-23T22:47:22.011Z,76.90
2022-10-23T22:49:55.730Z,83.80
2022-10-23T22:52:29.356Z,82.70
2022-10-23T22:55:05.293Z,82.33
2022-10-23T22:57:39.553Z,77.77
2022-10-23T23:00:14.305Z,76.67
2022-10-23T23:02:47.493Z,77.67
2022-10-23T23:05:21.156Z,75.57
2022-10-23T23:07:54.990Z,72.07
2022-10-23T23:10:31.510Z,73.77
2022-10-23T23:13:05.728Z,74.30
2022-10-23T23:15:44.362Z,71.10
2022-10-23T23:18:17.969Z,65.80
2022-10-23T23:20:52.527Z,76.77
2022-10-23T23:23:26.716Z,72.10
2022-10-23T23:26:02.329Z,73.13
2022-10-23T23:28:36.321Z,70.50
2022-10-23T23:31:11.831Z,69.27
2022-10-23T23:33:45.566Z,77.00
2022-10-23T23:36:22.176Z,68.20
2022-10-23T23:39:00.542Z,71.03
2022-10-23T23:41:36.236Z,67.57
2022-10-23T23:44:10.448Z,72.80
2022-10-23T23:46:44.723Z,63.27
2022-10-23T23:49:18.173Z,70.50
2022-10-23T23:51:52.329Z,67.43
2022-10-23T23:54:25.729Z,58.87
2022-10-23T23:57:07.037Z,61.30
2022-10-23T23:59:44.590Z,62.30
